Diamond Bar, CA (91765)

9:31 AM PDT on April 25, 2017 (GMT -0700)
West Pomona | | Change Station

Elev 722 ft 34.05 °N, 117.81 °W | Updated 33 seconds ago

Mostly Cloudy
Mostly Cloudy
64.8 °F
Feels Like 64.8 °F
N
2.7
Wind Variable Wind from South

Today
High -- | Low -- °F
--% Chance of Precip.
Yesterday
High -- | Low -- °F
Precip. -- in
Pressure 29.92 in
Visibility 7.0 miles
Clouds Mostly Cloudy 2000 ft
Dew Point 53 °F
Humidity 66%
Rainfall 0.00 in
Snow Depth Not available.
6:08 AM 7:30 PM
Waning Crescent, 1% visible
METAR KPOC 251547Z 00000KT 7SM BKN020 15/10 A2992
Pressure 29.92 in
Visibility 7.0 miles
Clouds Mostly Cloudy 2000 ft
Dew Point 53 °F
Humidity 66%
Rainfall 0.00 in
Snow Depth Not available.
6:08 AM 7:30 PM
Waning Crescent, 1% visible
METAR KPOC 251547Z 00000KT 7SM BKN020 15/10 A2992

Get Severe Weather Alerts

Thanks for signing up!

Be on the lookout for a verification email in your inbox.

You'll start receiving the daily forecast at 8 AM.

×

10-Day Weather Forecast

Almanac

Astronomy

Apr. 25, 2017 Rise Set
Actual Time
Civil Twilight
Nautical Twilight
Astronomical Twilight
Moon
Length of Visible Light
Length of Day
Tomorrow will be .
, % of the Moon is Illuminated

Today's Extremes

State Highs State Lows

Community

WunderPhotos

WunderBlog® & News

Nearby

Air Quality

  Air Quality AQ Index Pollutant
Not available.

Snow Depth

Station Depth Elevation

Earthquake Activity

City Distance Mag. Time & Date
Minimum magnitude displayed is 2.5.

Coastal Water Temperatures

Place Temperature

Stations

Nearby Weather Stations

Station Location Temp. Windchill Dew Point Humidity Wind Precip. Elev Updated Type
                   

Watches & Warnings

There are currently no watches in effect.